sensor_id;sensor_type;location;lat;lon;timestamp;P1;durP1;ratioP1;P2;durP2;ratioP2
6029;SDS011;3043;42.682;23.376;2022-07-23T00:00:04;13.93;;;8.27;;
6029;SDS011;3043;42.682;23.376;2022-07-23T00:02:30;11.13;;;8.30;;
6029;SDS011;3043;42.682;23.376;2022-07-23T00:04:55;11.97;;;8.00;;
6029;SDS011;3043;42.682;23.376;2022-07-23T00:07:21;12.10;;;7.47;;
6029;SDS011;3043;42.682;23.376;2022-07-23T00:09:46;12.33;;;7.80;;
6029;SDS011;3043;42.682;23.376;2022-07-23T00:12:12;11.10;;;7.43;;
6029;SDS011;3043;42.682;23.376;2022-07-23T00:14:37;13.23;;;7.37;;
6029;SDS011;3043;42.682;23.376;2022-07-23T00:17:06;13.90;;;7.90;;
6029;SDS011;3043;42.682;23.376;2022-07-23T00:19:31;10.53;;;7.53;;
6029;SDS011;3043;42.682;23.376;2022-07-23T00:21:57;9.27;;;7.17;;
6029;SDS011;3043;42.682;23.376;2022-07-23T00:24:22;14.63;;;10.03;;
6029;SDS011;3043;42.682;23.376;2022-07-23T00:26:48;11.80;;;7.73;;
6029;SDS011;3043;42.682;23.376;2022-07-23T00:29:13;12.87;;;8.03;;
6029;SDS011;3043;42.682;23.376;2022-07-23T00:31:38;11.83;;;7.80;;
6029;SDS011;3043;42.682;23.376;2022-07-23T00:34:04;12.87;;;7.97;;
6029;SDS011;3043;42.682;23.376;2022-07-23T00:36:29;11.13;;;7.93;;
6029;SDS011;3043;42.682;23.376;2022-07-23T00:38:56;11.80;;;7.60;;
6029;SDS011;3043;42.682;23.376;2022-07-23T00:41:22;13.33;;;9.13;;
6029;SDS011;3043;42.682;23.376;2022-07-23T00:43:47;12.37;;;8.43;;
6029;SDS011;3043;42.682;23.376;2022-07-23T00:46:13;13.93;;;7.20;;
6029;SDS011;3043;42.682;23.376;2022-07-23T00:48:44;12.80;;;7.40;;
6029;SDS011;3043;42.682;23.376;2022-07-23T00:51:09;12.53;;;8.13;;
6029;SDS011;3043;42.682;23.376;2022-07-23T00:53:35;14.10;;;7.63;;
6029;SDS011;3043;42.682;23.376;2022-07-23T00:56:00;11.27;;;7.93;;
6029;SDS011;3043;42.682;23.376;2022-07-23T00:58:26;10.97;;;7.37;;
6029;SDS011;3043;42.682;23.376;2022-07-23T01:00:52;12.30;;;8.17;;
6029;SDS011;3043;42.682;23.376;2022-07-23T01:03:17;12.73;;;8.17;;
6029;SDS011;3043;42.682;23.376;2022-07-23T01:05:43;10.83;;;7.60;;
6029;SDS011;3043;42.682;23.376;2022-07-23T01:08:09;17.40;;;12.70;;
6029;SDS011;3043;42.682;23.376;2022-07-23T01:10:35;13.70;;;8.80;;
6029;SDS011;3043;42.682;23.376;2022-07-23T01:15:31;12.33;;;8.43;;
6029;SDS011;3043;42.682;23.376;2022-07-23T01:17:58;10.20;;;8.20;;
6029;SDS011;3043;42.682;23.376;2022-07-23T01:20:23;10.53;;;8.50;;
6029;SDS011;3043;42.682;23.376;2022-07-23T01:22:49;11.93;;;8.47;;
6029;SDS011;3043;42.682;23.376;2022-07-23T01:25:16;13.50;;;8.00;;
6029;SDS011;3043;42.682;23.376;2022-07-23T01:27:41;11.03;;;8.67;;
6029;SDS011;3043;42.682;23.376;2022-07-23T01:30:07;11.43;;;7.47;;
6029;SDS011;3043;42.682;23.376;2022-07-23T01:32:33;10.23;;;8.17;;
6029;SDS011;3043;42.682;23.376;2022-07-23T01:34:59;13.33;;;8.20;;
6029;SDS011;3043;42.682;23.376;2022-07-23T01:37:24;12.30;;;7.77;;
6029;SDS011;3043;42.682;23.376;2022-07-23T01:39:50;9.07;;;7.73;;
6029;SDS011;3043;42.682;23.376;2022-07-23T01:42:15;10.80;;;8.07;;
6029;SDS011;3043;42.682;23.376;2022-07-23T01:44:41;12.17;;;7.67;;
6029;SDS011;3043;42.682;23.376;2022-07-23T01:47:06;10.97;;;7.50;;
6029;SDS011;3043;42.682;23.376;2022-07-23T01:49:32;12.50;;;7.73;;
6029;SDS011;3043;42.682;23.376;2022-07-23T01:51:57;10.27;;;8.00;;
6029;SDS011;3043;42.682;23.376;2022-07-23T01:54:26;10.97;;;8.33;;
6029;SDS011;3043;42.682;23.376;2022-07-23T01:56:53;12.57;;;8.03;;
6029;SDS011;3043;42.682;23.376;2022-07-23T01:59:19;11.80;;;7.97;;
6029;SDS011;3043;42.682;23.376;2022-07-23T02:01:44;17.43;;;8.97;;
6029;SDS011;3043;42.682;23.376;2022-07-23T02:04:09;13.07;;;8.67;;
6029;SDS011;3043;42.682;23.376;2022-07-23T02:06:35;15.80;;;9.17;;
6029;SDS011;3043;42.682;23.376;2022-07-23T02:09:00;13.93;;;8.77;;
6029;SDS011;3043;42.682;23.376;2022-07-23T02:11:26;14.47;;;9.00;;
6029;SDS011;3043;42.682;23.376;2022-07-23T02:13:51;13.27;;;8.17;;
6029;SDS011;3043;42.682;23.376;2022-07-23T02:16:17;17.40;;;9.17;;
6029;SDS011;3043;42.682;23.376;2022-07-23T02:18:42;15.30;;;9.77;;
6029;SDS011;3043;42.682;23.376;2022-07-23T02:21:07;16.40;;;9.37;;
6029;SDS011;3043;42.682;23.376;2022-07-23T02:23:33;17.27;;;9.57;;
6029;SDS011;3043;42.682;23.376;2022-07-23T02:25:58;11.90;;;8.60;;
6029;SDS011;3043;42.682;23.376;2022-07-23T02:28:24;14.43;;;9.33;;
6029;SDS011;3043;42.682;23.376;2022-07-23T02:30:49;15.67;;;9.37;;
6029;SDS011;3043;42.682;23.376;2022-07-23T02:33:14;15.87;;;9.70;;
6029;SDS011;3043;42.682;23.376;2022-07-23T02:35:40;15.87;;;9.13;;
6029;SDS011;3043;42.682;23.376;2022-07-23T02:38:05;15.00;;;9.63;;
6029;SDS011;3043;42.682;23.376;2022-07-23T02:40:31;16.13;;;9.50;;
6029;SDS011;3043;42.682;23.376;2022-07-23T02:42:56;17.77;;;10.13;;
6029;SDS011;3043;42.682;23.376;2022-07-23T02:45:22;11.43;;;8.43;;
6029;SDS011;3043;42.682;23.376;2022-07-23T02:47:47;16.80;;;10.07;;
6029;SDS011;3043;42.682;23.376;2022-07-23T02:50:13;15.80;;;9.63;;
6029;SDS011;3043;42.682;23.376;2022-07-23T02:52:38;13.80;;;9.10;;
6029;SDS011;3043;42.682;23.376;2022-07-23T02:55:04;14.67;;;9.60;;
6029;SDS011;3043;42.682;23.376;2022-07-23T02:57:30;15.70;;;9.40;;
6029;SDS011;3043;42.682;23.376;2022-07-23T02:59:56;14.90;;;9.53;;
6029;SDS011;3043;42.682;23.376;2022-07-23T03:02:21;13.40;;;9.07;;
6029;SDS011;3043;42.682;23.376;2022-07-23T03:04:47;18.07;;;9.87;;
6029;SDS011;3043;42.682;23.376;2022-07-23T03:07:12;14.67;;;9.57;;
6029;SDS011;3043;42.682;23.376;2022-07-23T03:09:37;13.97;;;9.33;;
6029;SDS011;3043;42.682;23.376;2022-07-23T03:12:03;13.60;;;9.70;;
6029;SDS011;3043;42.682;23.376;2022-07-23T03:14:28;18.23;;;10.60;;
6029;SDS011;3043;42.682;23.376;2022-07-23T03:16:54;18.47;;;11.20;;
6029;SDS011;3043;42.682;23.376;2022-07-23T03:19:19;20.00;;;11.50;;
6029;SDS011;3043;42.682;23.376;2022-07-23T03:21:45;18.20;;;11.60;;
6029;SDS011;3043;42.682;23.376;2022-07-23T03:24:10;13.97;;;10.63;;
6029;SDS011;3043;42.682;23.376;2022-07-23T03:26:36;17.80;;;11.10;;
6029;SDS011;3043;42.682;23.376;2022-07-23T03:29:02;16.10;;;11.37;;
6029;SDS011;3043;42.682;23.376;2022-07-23T03:31:29;15.47;;;11.17;;
6029;SDS011;3043;42.682;23.376;2022-07-23T03:33:56;15.57;;;10.50;;
6029;SDS011;3043;42.682;23.376;2022-07-23T03:36:22;15.07;;;10.30;;
6029;SDS011;3043;42.682;23.376;2022-07-23T03:38:47;14.83;;;11.30;;
6029;SDS011;3043;42.682;23.376;2022-07-23T03:41:12;15.97;;;9.97;;
6029;SDS011;3043;42.682;23.376;2022-07-23T03:43:38;18.83;;;10.97;;
6029;SDS011;3043;42.682;23.376;2022-07-23T03:46:03;18.83;;;11.23;;
6029;SDS011;3043;42.682;23.376;2022-07-23T03:48:29;18.60;;;11.73;;
6029;SDS011;3043;42.682;23.376;2022-07-23T03:50:54;23.33;;;12.27;;
6029;SDS011;3043;42.682;23.376;2022-07-23T03:53:19;19.50;;;12.20;;
6029;SDS011;3043;42.682;23.376;2022-07-23T03:55:45;23.87;;;11.80;;
6029;SDS011;3043;42.682;23.376;2022-07-23T03:58:10;16.93;;;11.80;;
6029;SDS011;3043;42.682;23.376;2022-07-23T04:00:36;17.03;;;12.03;;
6029;SDS011;3043;42.682;23.376;2022-07-23T04:03:01;17.50;;;11.60;;
6029;SDS011;3043;42.682;23.376;2022-07-23T04:05:26;16.77;;;11.40;;
6029;SDS011;3043;42.682;23.376;2022-07-23T04:07:52;15.97;;;11.67;;
6029;SDS011;3043;42.682;23.376;2022-07-23T04:10:17;15.93;;;11.33;;
6029;SDS011;3043;42.682;23.376;2022-07-23T04:12:43;16.23;;;11.50;;
6029;SDS011;3043;42.682;23.376;2022-07-23T04:15:08;22.27;;;12.10;;
6029;SDS011;3043;42.682;23.376;2022-07-23T04:17:34;16.47;;;11.87;;
6029;SDS011;3043;42.682;23.376;2022-07-23T04:19:59;19.73;;;11.97;;
6029;SDS011;3043;42.682;23.376;2022-07-23T04:22:25;21.63;;;11.37;;
6029;SDS011;3043;42.682;23.376;2022-07-23T04:24:50;16.70;;;11.10;;
6029;SDS011;3043;42.682;23.376;2022-07-23T04:27:16;14.70;;;10.57;;
6029;SDS011;3043;42.682;23.376;2022-07-23T04:29:41;18.80;;;12.17;;
6029;SDS011;3043;42.682;23.376;2022-07-23T04:32:07;17.83;;;12.38;;
6029;SDS011;3043;42.682;23.376;2022-07-23T04:34:32;21.23;;;12.93;;
6029;SDS011;3043;42.682;23.376;2022-07-23T04:36:57;16.20;;;12.77;;
6029;SDS011;3043;42.682;23.376;2022-07-23T04:39:23;20.13;;;12.73;;
6029;SDS011;3043;42.682;23.376;2022-07-23T04:41:48;18.07;;;11.30;;
6029;SDS011;3043;42.682;23.376;2022-07-23T04:44:14;17.42;;;11.63;;
6029;SDS011;3043;42.682;23.376;2022-07-23T04:46:39;18.85;;;10.40;;
6029;SDS011;3043;42.682;23.376;2022-07-23T04:49:05;14.75;;;10.15;;
6029;SDS011;3043;42.682;23.376;2022-07-23T04:51:30;13.38;;;10.07;;
6029;SDS011;3043;42.682;23.376;2022-07-23T04:53:56;14.30;;;10.00;;
6029;SDS011;3043;42.682;23.376;2022-07-23T04:56:21;13.90;;;10.02;;
6029;SDS011;3043;42.682;23.376;2022-07-23T04:58:47;13.40;;;9.43;;
6029;SDS011;3043;42.682;23.376;2022-07-23T05:01:12;13.70;;;9.98;;
6029;SDS011;3043;42.682;23.376;2022-07-23T05:03:38;15.15;;;10.27;;
6029;SDS011;3043;42.682;23.376;2022-07-23T05:06:03;19.42;;;10.07;;
6029;SDS011;3043;42.682;23.376;2022-07-23T05:08:29;12.98;;;10.20;;
6029;SDS011;3043;42.682;23.376;2022-07-23T05:10:54;13.60;;;10.18;;
6029;SDS011;3043;42.682;23.376;2022-07-23T05:13:22;15.60;;;9.27;;
6029;SDS011;3043;42.682;23.376;2022-07-23T05:15:47;15.30;;;10.48;;
6029;SDS011;3043;42.682;23.376;2022-07-23T05:18:13;13.10;;;9.55;;
6029;SDS011;3043;42.682;23.376;2022-07-23T05:20:39;14.27;;;9.32;;
6029;SDS011;3043;42.682;23.376;2022-07-23T05:23:04;17.98;;;10.00;;
6029;SDS011;3043;42.682;23.376;2022-07-23T05:25:30;13.57;;;10.25;;
6029;SDS011;3043;42.682;23.376;2022-07-23T05:27:55;13.43;;;8.98;;
6029;SDS011;3043;42.682;23.376;2022-07-23T05:30:21;12.00;;;8.93;;
6029;SDS011;3043;42.682;23.376;2022-07-23T05:32:46;14.60;;;9.93;;
6029;SDS011;3043;42.682;23.376;2022-07-23T05:35:12;13.00;;;8.80;;
6029;SDS011;3043;42.682;23.376;2022-07-23T05:37:37;14.50;;;9.18;;
6029;SDS011;3043;42.682;23.376;2022-07-23T05:40:03;15.35;;;8.90;;
6029;SDS011;3043;42.682;23.376;2022-07-23T05:42:34;12.50;;;8.93;;
6029;SDS011;3043;42.682;23.376;2022-07-23T05:45:00;14.02;;;9.55;;
6029;SDS011;3043;42.682;23.376;2022-07-23T05:47:25;14.23;;;9.27;;
6029;SDS011;3043;42.682;23.376;2022-07-23T05:49:51;18.45;;;9.73;;
6029;SDS011;3043;42.682;23.376;2022-07-23T05:52:16;16.15;;;10.15;;
6029;SDS011;3043;42.682;23.376;2022-07-23T05:54:42;12.65;;;8.90;;
6029;SDS011;3043;42.682;23.376;2022-07-23T05:57:07;15.88;;;9.63;;
6029;SDS011;3043;42.682;23.376;2022-07-23T05:59:33;17.45;;;10.02;;
6029;SDS011;3043;42.682;23.376;2022-07-23T06:01:59;13.23;;;10.02;;
6029;SDS011;3043;42.682;23.376;2022-07-23T06:04:24;16.73;;;9.30;;
6029;SDS011;3043;42.682;23.376;2022-07-23T06:06:49;15.48;;;10.02;;
6029;SDS011;3043;42.682;23.376;2022-07-23T06:09:15;14.82;;;9.75;;
6029;SDS011;3043;42.682;23.376;2022-07-23T06:11:40;12.27;;;9.15;;
6029;SDS011;3043;42.682;23.376;2022-07-23T06:14:06;15.82;;;9.70;;
6029;SDS011;3043;42.682;23.376;2022-07-23T06:16:32;21.35;;;9.00;;
6029;SDS011;3043;42.682;23.376;2022-07-23T06:18:57;14.55;;;9.00;;
6029;SDS011;3043;42.682;23.376;2022-07-23T06:21:22;15.93;;;9.35;;
6029;SDS011;3043;42.682;23.376;2022-07-23T06:23:48;17.02;;;9.18;;
6029;SDS011;3043;42.682;23.376;2022-07-23T06:26:13;12.80;;;8.70;;
6029;SDS011;3043;42.682;23.376;2022-07-23T06:28:39;13.98;;;9.57;;
6029;SDS011;3043;42.682;23.376;2022-07-23T06:31:04;11.75;;;9.55;;
6029;SDS011;3043;42.682;23.376;2022-07-23T06:33:30;14.48;;;9.50;;
6029;SDS011;3043;42.682;23.376;2022-07-23T06:35:55;17.05;;;10.15;;
6029;SDS011;3043;42.682;23.376;2022-07-23T06:38:20;17.48;;;9.25;;
6029;SDS011;3043;42.682;23.376;2022-07-23T06:40:46;18.70;;;9.73;;
6029;SDS011;3043;42.682;23.376;2022-07-23T06:43:11;15.82;;;9.68;;
6029;SDS011;3043;42.682;23.376;2022-07-23T06:45:38;15.80;;;10.07;;
6029;SDS011;3043;42.682;23.376;2022-07-23T06:48:03;17.55;;;10.10;;
6029;SDS011;3043;42.682;23.376;2022-07-23T06:50:29;12.85;;;10.82;;
6029;SDS011;3043;42.682;23.376;2022-07-23T06:52:54;17.70;;;12.55;;
6029;SDS011;3043;42.682;23.376;2022-07-23T06:55:20;14.60;;;9.02;;
6029;SDS011;3043;42.682;23.376;2022-07-23T06:57:45;15.57;;;9.60;;
6029;SDS011;3043;42.682;23.376;2022-07-23T07:00:11;15.90;;;11.57;;
6029;SDS011;3043;42.682;23.376;2022-07-23T07:02:36;12.65;;;9.50;;
6029;SDS011;3043;42.682;23.376;2022-07-23T07:05:02;14.45;;;9.35;;
6029;SDS011;3043;42.682;23.376;2022-07-23T07:07:28;14.30;;;8.52;;
6029;SDS011;3043;42.682;23.376;2022-07-23T07:09:53;14.73;;;8.65;;
6029;SDS011;3043;42.682;23.376;2022-07-23T07:12:19;12.27;;;8.60;;
6029;SDS011;3043;42.682;23.376;2022-07-23T07:14:44;15.73;;;8.70;;
6029;SDS011;3043;42.682;23.376;2022-07-23T07:17:09;12.95;;;7.93;;
6029;SDS011;3043;42.682;23.376;2022-07-23T07:19:36;14.50;;;9.52;;
6029;SDS011;3043;42.682;23.376;2022-07-23T07:22:01;14.90;;;8.90;;
6029;SDS011;3043;42.682;23.376;2022-07-23T07:24:27;18.52;;;8.98;;
6029;SDS011;3043;42.682;23.376;2022-07-23T07:26:52;14.65;;;9.73;;
6029;SDS011;3043;42.682;23.376;2022-07-23T07:29:18;15.63;;;9.93;;
6029;SDS011;3043;42.682;23.376;2022-07-23T07:31:43;15.75;;;9.93;;
6029;SDS011;3043;42.682;23.376;2022-07-23T07:34:09;19.05;;;10.40;;
6029;SDS011;3043;42.682;23.376;2022-07-23T07:36:34;18.25;;;11.20;;
6029;SDS011;3043;42.682;23.376;2022-07-23T07:39:02;16.95;;;10.75;;
6029;SDS011;3043;42.682;23.376;2022-07-23T07:41:29;14.30;;;9.90;;
6029;SDS011;3043;42.682;23.376;2022-07-23T07:43:54;19.25;;;11.00;;
6029;SDS011;3043;42.682;23.376;2022-07-23T07:46:20;19.45;;;11.63;;
6029;SDS011;3043;42.682;23.376;2022-07-23T07:48:45;23.77;;;13.05;;
6029;SDS011;3043;42.682;23.376;2022-07-23T07:51:10;14.75;;;10.15;;
6029;SDS011;3043;42.682;23.376;2022-07-23T07:53:36;14.85;;;10.38;;
6029;SDS011;3043;42.682;23.376;2022-07-23T07:56:01;21.48;;;10.88;;
6029;SDS011;3043;42.682;23.376;2022-07-23T07:58:27;20.90;;;11.13;;
6029;SDS011;3043;42.682;23.376;2022-07-23T08:00:52;19.25;;;10.32;;
6029;SDS011;3043;42.682;23.376;2022-07-23T08:03:17;17.73;;;10.95;;
6029;SDS011;3043;42.682;23.376;2022-07-23T08:05:43;18.25;;;10.70;;
6029;SDS011;3043;42.682;23.376;2022-07-23T08:08:08;16.80;;;10.13;;
6029;SDS011;3043;42.682;23.376;2022-07-23T08:10:39;14.18;;;10.30;;
6029;SDS011;3043;42.682;23.376;2022-07-23T08:13:06;18.92;;;9.75;;
6029;SDS011;3043;42.682;23.376;2022-07-23T08:15:31;17.27;;;10.07;;
6029;SDS011;3043;42.682;23.376;2022-07-23T08:17:56;20.02;;;11.15;;
6029;SDS011;3043;42.682;23.376;2022-07-23T08:20:23;17.45;;;11.07;;
6029;SDS011;3043;42.682;23.376;2022-07-23T08:22:53;16.38;;;10.82;;
6029;SDS011;3043;42.682;23.376;2022-07-23T08:25:29;16.60;;;10.48;;
6029;SDS011;3043;42.682;23.376;2022-07-23T08:27:55;15.07;;;10.32;;
6029;SDS011;3043;42.682;23.376;2022-07-23T08:30:21;14.80;;;9.38;;
6029;SDS011;3043;42.682;23.376;2022-07-23T08:32:55;14.13;;;9.40;;
6029;SDS011;3043;42.682;23.376;2022-07-23T08:35:29;17.65;;;9.80;;
6029;SDS011;3043;42.682;23.376;2022-07-23T08:37:56;17.13;;;9.30;;
6029;SDS011;3043;42.682;23.376;2022-07-23T08:40:22;22.50;;;10.40;;
6029;SDS011;3043;42.682;23.376;2022-07-23T08:42:50;14.63;;;8.98;;
6029;SDS011;3043;42.682;23.376;2022-07-23T08:45:19;22.50;;;9.90;;
6029;SDS011;3043;42.682;23.376;2022-07-23T08:47:47;19.27;;;10.35;;
6029;SDS011;3043;42.682;23.376;2022-07-23T08:50:17;14.70;;;8.90;;
6029;SDS011;3043;42.682;23.376;2022-07-23T08:52:43;15.55;;;10.07;;
6029;SDS011;3043;42.682;23.376;2022-07-23T08:55:09;14.98;;;8.82;;
6029;SDS011;3043;42.682;23.376;2022-07-23T08:57:35;12.13;;;8.52;;
6029;SDS011;3043;42.682;23.376;2022-07-23T09:00:00;15.55;;;9.52;;
6029;SDS011;3043;42.682;23.376;2022-07-23T09:02:26;15.50;;;9.57;;
6029;SDS011;3043;42.682;23.376;2022-07-23T09:04:51;13.25;;;9.18;;
6029;SDS011;3043;42.682;23.376;2022-07-23T09:07:17;20.25;;;9.07;;
6029;SDS011;3043;42.682;23.376;2022-07-23T09:09:43;13.77;;;8.50;;
6029;SDS011;3043;42.682;23.376;2022-07-23T09:12:09;13.82;;;8.70;;
6029;SDS011;3043;42.682;23.376;2022-07-23T09:14:42;12.63;;;8.80;;
6029;SDS011;3043;42.682;23.376;2022-07-23T09:17:13;15.05;;;9.23;;
6029;SDS011;3043;42.682;23.376;2022-07-23T09:19:41;13.60;;;8.88;;
6029;SDS011;3043;42.682;23.376;2022-07-23T09:22:18;13.55;;;8.82;;
6029;SDS011;3043;42.682;23.376;2022-07-23T09:25:06;12.77;;;8.50;;
6029;SDS011;3043;42.682;23.376;2022-07-23T09:27:59;14.20;;;8.80;;
6029;SDS011;3043;42.682;23.376;2022-07-23T09:30:28;13.10;;;8.95;;
6029;SDS011;3043;42.682;23.376;2022-07-23T09:33:05;13.13;;;8.13;;
6029;SDS011;3043;42.682;23.376;2022-07-23T09:38:09;12.88;;;8.88;;
6029;SDS011;3043;42.682;23.376;2022-07-23T09:40:35;13.00;;;8.63;;
6029;SDS011;3043;42.682;23.376;2022-07-23T09:43:00;12.60;;;8.05;;
6029;SDS011;3043;42.682;23.376;2022-07-23T09:45:26;13.95;;;8.50;;
6029;SDS011;3043;42.682;23.376;2022-07-23T09:47:51;12.45;;;8.23;;
6029;SDS011;3043;42.682;23.376;2022-07-23T09:50:35;12.70;;;7.43;;
6029;SDS011;3043;42.682;23.376;2022-07-23T09:53:00;16.77;;;8.07;;
6029;SDS011;3043;42.682;23.376;2022-07-23T09:55:31;14.48;;;9.57;;
6029;SDS011;3043;42.682;23.376;2022-07-23T09:58:07;15.25;;;8.73;;
6029;SDS011;3043;42.682;23.376;2022-07-23T10:00:36;13.65;;;8.73;;
6029;SDS011;3043;42.682;23.376;2022-07-23T10:03:02;16.63;;;8.63;;
6029;SDS011;3043;42.682;23.376;2022-07-23T10:05:31;14.13;;;7.60;;
6029;SDS011;3043;42.682;23.376;2022-07-23T10:07:58;16.00;;;8.20;;
6029;SDS011;3043;42.682;23.376;2022-07-23T10:10:26;14.68;;;8.40;;
6029;SDS011;3043;42.682;23.376;2022-07-23T10:12:53;11.50;;;7.60;;
6029;SDS011;3043;42.682;23.376;2022-07-23T10:15:39;11.55;;;7.35;;
6029;SDS011;3043;42.682;23.376;2022-07-23T10:18:06;10.70;;;7.80;;
6029;SDS011;3043;42.682;23.376;2022-07-23T10:20:34;13.20;;;7.65;;
6029;SDS011;3043;42.682;23.376;2022-07-23T10:26:03;11.45;;;7.63;;
6029;SDS011;3043;42.682;23.376;2022-07-23T10:28:43;11.60;;;7.60;;
6029;SDS011;3043;42.682;23.376;2022-07-23T10:31:28;12.73;;;7.70;;
6029;SDS011;3043;42.682;23.376;2022-07-23T10:39:26;12.90;;;6.60;;
6029;SDS011;3043;42.682;23.376;2022-07-23T10:42:09;11.48;;;7.63;;
6029;SDS011;3043;42.682;23.376;2022-07-23T10:44:39;12.32;;;8.02;;
6029;SDS011;3043;42.682;23.376;2022-07-23T10:47:10;11.73;;;7.63;;
6029;SDS011;3043;42.682;23.376;2022-07-23T10:49:38;11.00;;;6.88;;
6029;SDS011;3043;42.682;23.376;2022-07-23T10:54:42;14.10;;;7.47;;
6029;SDS011;3043;42.682;23.376;2022-07-23T10:57:09;12.98;;;7.05;;
6029;SDS011;3043;42.682;23.376;2022-07-23T11:02:45;15.73;;;7.55;;
6029;SDS011;3043;42.682;23.376;2022-07-23T11:05:13;15.15;;;8.50;;
6029;SDS011;3043;42.682;23.376;2022-07-23T11:08:22;12.27;;;7.50;;
6029;SDS011;3043;42.682;23.376;2022-07-23T11:10:35;12.55;;;7.47;;
6029;SDS011;3043;42.682;23.376;2022-07-23T11:16:03;12.88;;;8.98;;
6029;SDS011;3043;42.682;23.376;2022-07-23T11:23:58;10.77;;;7.20;;
6029;SDS011;3043;42.682;23.376;2022-07-23T11:34:50;15.32;;;7.53;;
6029;SDS011;3043;42.682;23.376;2022-07-23T11:37:34;12.80;;;7.30;;
6029;SDS011;3043;42.682;23.376;2022-07-23T11:40:04;14.98;;;7.15;;
6029;SDS011;3043;42.682;23.376;2022-07-23T11:42:33;15.13;;;6.88;;
6029;SDS011;3043;42.682;23.376;2022-07-23T11:45:00;11.45;;;6.53;;
6029;SDS011;3043;42.682;23.376;2022-07-23T11:47:26;14.43;;;6.60;;
6029;SDS011;3043;42.682;23.376;2022-07-23T11:49:56;13.73;;;7.07;;
6029;SDS011;3043;42.682;23.376;2022-07-23T11:52:23;18.23;;;7.40;;
6029;SDS011;3043;42.682;23.376;2022-07-23T11:54:53;13.93;;;7.50;;
6029;SDS011;3043;42.682;23.376;2022-07-23T11:57:23;13.88;;;7.13;;
6029;SDS011;3043;42.682;23.376;2022-07-23T11:59:58;14.52;;;7.07;;
6029;SDS011;3043;42.682;23.376;2022-07-23T12:02:43;15.32;;;7.50;;
6029;SDS011;3043;42.682;23.376;2022-07-23T12:05:17;12.88;;;6.90;;
6029;SDS011;3043;42.682;23.376;2022-07-23T12:07:44;16.67;;;7.78;;
6029;SDS011;3043;42.682;23.376;2022-07-23T12:12:49;12.07;;;7.63;;
6029;SDS011;3043;42.682;23.376;2022-07-23T12:15:17;16.75;;;7.32;;
6029;SDS011;3043;42.682;23.376;2022-07-23T12:17:55;12.77;;;7.25;;
6029;SDS011;3043;42.682;23.376;2022-07-23T12:20:22;16.55;;;7.20;;
6029;SDS011;3043;42.682;23.376;2022-07-23T12:22:55;11.93;;;6.75;;
6029;SDS011;3043;42.682;23.376;2022-07-23T12:25:26;15.23;;;6.40;;
6029;SDS011;3043;42.682;23.376;2022-07-23T12:30:36;15.95;;;7.13;;
6029;SDS011;3043;42.682;23.376;2022-07-23T12:33:04;16.58;;;6.82;;
6029;SDS011;3043;42.682;23.376;2022-07-23T12:35:43;16.83;;;7.18;;
6029;SDS011;3043;42.682;23.376;2022-07-23T12:38:12;19.30;;;7.85;;
6029;SDS011;3043;42.682;23.376;2022-07-23T12:40:49;15.57;;;8.38;;
6029;SDS011;3043;42.682;23.376;2022-07-23T12:48:29;15.68;;;7.43;;
6029;SDS011;3043;42.682;23.376;2022-07-23T12:53:32;12.40;;;7.25;;
6029;SDS011;3043;42.682;23.376;2022-07-23T12:56:05;14.73;;;6.93;;
6029;SDS011;3043;42.682;23.376;2022-07-23T12:58:41;13.10;;;7.20;;
6029;SDS011;3043;42.682;23.376;2022-07-23T13:03:53;14.15;;;6.60;;
6029;SDS011;3043;42.682;23.376;2022-07-23T13:06:37;15.38;;;7.15;;
6029;SDS011;3043;42.682;23.376;2022-07-23T13:09:06;13.52;;;7.28;;
6029;SDS011;3043;42.682;23.376;2022-07-23T13:11:33;17.23;;;7.00;;
6029;SDS011;3043;42.682;23.376;2022-07-23T13:13:59;17.90;;;7.63;;
6029;SDS011;3043;42.682;23.376;2022-07-23T13:16:26;17.38;;;6.68;;
6029;SDS011;3043;42.682;23.376;2022-07-23T13:18:52;15.73;;;7.13;;
6029;SDS011;3043;42.682;23.376;2022-07-23T13:21:18;14.05;;;7.07;;
6029;SDS011;3043;42.682;23.376;2022-07-23T13:23:43;14.75;;;7.70;;
6029;SDS011;3043;42.682;23.376;2022-07-23T13:26:09;14.80;;;7.00;;
6029;SDS011;3043;42.682;23.376;2022-07-23T13:28:34;16.45;;;7.50;;
6029;SDS011;3043;42.682;23.376;2022-07-23T13:31:00;15.30;;;7.28;;
6029;SDS011;3043;42.682;23.376;2022-07-23T13:33:25;14.63;;;6.93;;
6029;SDS011;3043;42.682;23.376;2022-07-23T13:35:51;15.52;;;7.20;;
6029;SDS011;3043;42.682;23.376;2022-07-23T13:38:18;17.33;;;7.22;;
6029;SDS011;3043;42.682;23.376;2022-07-23T13:40:45;16.80;;;7.28;;
6029;SDS011;3043;42.682;23.376;2022-07-23T13:43:13;19.13;;;8.05;;
6029;SDS011;3043;42.682;23.376;2022-07-23T13:45:41;15.82;;;6.85;;
6029;SDS011;3043;42.682;23.376;2022-07-23T13:48:10;16.73;;;6.75;;
6029;SDS011;3043;42.682;23.376;2022-07-23T13:50:36;21.50;;;8.98;;
6029;SDS011;3043;42.682;23.376;2022-07-23T13:53:07;14.13;;;7.10;;
6029;SDS011;3043;42.682;23.376;2022-07-23T13:55:37;13.57;;;7.15;;
6029;SDS011;3043;42.682;23.376;2022-07-23T13:58:04;14.98;;;6.75;;
6029;SDS011;3043;42.682;23.376;2022-07-23T14:00:30;20.25;;;7.53;;
6029;SDS011;3043;42.682;23.376;2022-07-23T14:02:57;20.98;;;7.28;;
6029;SDS011;3043;42.682;23.376;2022-07-23T14:05:23;13.65;;;6.65;;
6029;SDS011;3043;42.682;23.376;2022-07-23T14:07:48;14.77;;;6.60;;
6029;SDS011;3043;42.682;23.376;2022-07-23T14:10:16;16.50;;;7.05;;
6029;SDS011;3043;42.682;23.376;2022-07-23T14:12:44;12.75;;;6.63;;
6029;SDS011;3043;42.682;23.376;2022-07-23T14:15:10;16.42;;;7.10;;
6029;SDS011;3043;42.682;23.376;2022-07-23T14:17:36;16.85;;;10.68;;
6029;SDS011;3043;42.682;23.376;2022-07-23T14:20:03;15.43;;;6.95;;
6029;SDS011;3043;42.682;23.376;2022-07-23T14:22:30;12.90;;;6.47;;
6029;SDS011;3043;42.682;23.376;2022-07-23T14:24:55;14.05;;;6.78;;
6029;SDS011;3043;42.682;23.376;2022-07-23T14:27:22;13.45;;;6.45;;
6029;SDS011;3043;42.682;23.376;2022-07-23T14:29:48;19.77;;;6.75;;
6029;SDS011;3043;42.682;23.376;2022-07-23T14:32:13;15.05;;;7.00;;
6029;SDS011;3043;42.682;23.376;2022-07-23T14:34:39;16.67;;;6.78;;
6029;SDS011;3043;42.682;23.376;2022-07-23T14:37:04;14.93;;;6.57;;
6029;SDS011;3043;42.682;23.376;2022-07-23T14:39:30;12.75;;;6.78;;
6029;SDS011;3043;42.682;23.376;2022-07-23T14:41:55;14.07;;;6.25;;
6029;SDS011;3043;42.682;23.376;2022-07-23T14:44:21;16.05;;;6.80;;
6029;SDS011;3043;42.682;23.376;2022-07-23T14:46:46;13.23;;;6.68;;
6029;SDS011;3043;42.682;23.376;2022-07-23T14:49:12;11.18;;;6.05;;
6029;SDS011;3043;42.682;23.376;2022-07-23T14:51:37;16.35;;;6.30;;
6029;SDS011;3043;42.682;23.376;2022-07-23T14:54:03;16.42;;;6.95;;
6029;SDS011;3043;42.682;23.376;2022-07-23T14:56:29;14.18;;;6.70;;
6029;SDS011;3043;42.682;23.376;2022-07-23T14:58:54;16.48;;;7.57;;
6029;SDS011;3043;42.682;23.376;2022-07-23T15:01:21;17.65;;;6.85;;
6029;SDS011;3043;42.682;23.376;2022-07-23T15:03:48;13.30;;;6.72;;
6029;SDS011;3043;42.682;23.376;2022-07-23T15:06:15;13.98;;;5.95;;
6029;SDS011;3043;42.682;23.376;2022-07-23T15:08:41;14.40;;;7.05;;
6029;SDS011;3043;42.682;23.376;2022-07-23T15:11:06;11.65;;;7.35;;
6029;SDS011;3043;42.682;23.376;2022-07-23T15:13:34;13.73;;;6.97;;
6029;SDS011;3043;42.682;23.376;2022-07-23T15:16:00;12.57;;;8.02;;
6029;SDS011;3043;42.682;23.376;2022-07-23T15:18:26;12.05;;;6.85;;
6029;SDS011;3043;42.682;23.376;2022-07-23T15:20:51;12.02;;;7.05;;
6029;SDS011;3043;42.682;23.376;2022-07-23T15:23:17;14.38;;;7.57;;
6029;SDS011;3043;42.682;23.376;2022-07-23T15:25:42;14.27;;;7.68;;
6029;SDS011;3043;42.682;23.376;2022-07-23T15:28:07;13.20;;;6.68;;
6029;SDS011;3043;42.682;23.376;2022-07-23T15:30:33;14.40;;;7.57;;
6029;SDS011;3043;42.682;23.376;2022-07-23T15:32:58;14.65;;;7.43;;
6029;SDS011;3043;42.682;23.376;2022-07-23T15:35:24;14.77;;;7.68;;